createdAt,value
2024-02-20T00:00:34.992Z,1.52
2024-02-20T00:03:01.658Z,1.60
2024-02-20T00:05:28.075Z,1.17
2024-02-20T00:07:54.481Z,1.40
2024-02-20T00:10:20.968Z,1.58
2024-02-20T00:12:47.600Z,2.20
2024-02-20T00:15:16.703Z,1.92
2024-02-20T00:17:43.800Z,0.75
2024-02-20T00:20:10.705Z,1.30
2024-02-20T00:22:37.395Z,1.55
2024-02-20T00:25:04.369Z,0.95
2024-02-20T00:27:30.912Z,0.98
2024-02-20T00:29:57.304Z,0.82
2024-02-20T00:32:24.188Z,0.88
2024-02-20T00:34:50.767Z,1.05
2024-02-20T00:37:17.499Z,0.77
2024-02-20T00:39:43.974Z,1.15
2024-02-20T00:42:10.525Z,1.63
2024-02-20T00:44:37.006Z,1.60
2024-02-20T00:47:03.776Z,1.50
2024-02-20T00:49:32.581Z,1.35
2024-02-20T00:51:58.994Z,0.70
2024-02-20T00:54:26.810Z,1.10
2024-02-20T00:56:53.156Z,1.30
2024-02-20T00:59:19.879Z,1.35
2024-02-20T01:01:48.160Z,1.15
2024-02-20T01:04:14.924Z,1.45
2024-02-20T01:06:41.626Z,1.67
2024-02-20T01:09:07.903Z,1.08
2024-02-20T01:11:34.303Z,1.00
2024-02-20T01:14:00.885Z,1.33
2024-02-20T01:16:27.344Z,1.00
2024-02-20T01:18:54.522Z,1.63
2024-02-20T01:21:23.470Z,1.55
2024-02-20T01:23:49.968Z,1.65
2024-02-20T01:26:16.542Z,1.40
2024-02-20T01:28:44.393Z,1.40
2024-02-20T01:31:16.950Z,1.67
2024-02-20T01:33:43.339Z,1.38
2024-02-20T01:36:09.663Z,1.58
2024-02-20T01:38:36.003Z,1.50
2024-02-20T01:41:09.520Z,1.20
2024-02-20T01:43:35.865Z,1.35
2024-02-20T01:46:02.448Z,1.13
2024-02-20T01:48:28.973Z,1.38
2024-02-20T01:50:55.363Z,1.90
2024-02-20T01:53:22.043Z,1.33
2024-02-20T01:55:49.067Z,1.30
2024-02-20T01:58:15.915Z,1.35
2024-02-20T02:00:42.331Z,1.23
2024-02-20T02:03:08.747Z,1.40
2024-02-20T02:05:35.092Z,1.00
2024-02-20T02:08:01.831Z,1.48
2024-02-20T02:10:28.276Z,1.63
2024-02-20T02:12:54.904Z,0.98
2024-02-20T02:15:21.351Z,1.42
2024-02-20T02:17:49.715Z,1.45
2024-02-20T02:20:16.096Z,1.48
2024-02-20T02:22:42.376Z,1.80
2024-02-20T02:25:09.015Z,1.42
2024-02-20T02:27:36.339Z,1.27
2024-02-20T02:30:02.606Z,0.85
2024-02-20T02:32:28.906Z,1.38
2024-02-20T02:34:55.388Z,1.30
2024-02-20T02:37:21.801Z,1.23
2024-02-20T02:39:48.102Z,1.38
2024-02-20T02:42:14.481Z,0.88
2024-02-20T02:44:40.739Z,1.38
2024-02-20T02:47:07.043Z,1.13
2024-02-20T02:49:33.548Z,2.03
2024-02-20T02:51:59.961Z,1.85
2024-02-20T02:54:26.265Z,2.22
2024-02-20T02:56:52.589Z,1.70
2024-02-20T02:59:18.882Z,1.70
2024-02-20T03:01:45.177Z,1.90
2024-02-20T03:04:11.563Z,2.40
2024-02-20T03:06:38.132Z,1.42
2024-02-20T03:09:04.646Z,1.48
2024-02-20T03:11:31.011Z,1.45
2024-02-20T03:13:57.491Z,1.42
2024-02-20T03:16:23.835Z,1.70
2024-02-20T03:18:50.273Z,1.60
2024-02-20T03:21:17.032Z,1.80
2024-02-20T03:23:43.335Z,1.45
2024-02-20T03:26:09.701Z,1.98
2024-02-20T03:28:36.079Z,1.50
2024-02-20T03:31:02.648Z,1.77
2024-02-20T03:33:29.106Z,2.00
2024-02-20T03:35:55.733Z,1.90
2024-02-20T03:38:22.056Z,2.92
2024-02-20T03:40:48.416Z,1.50
2024-02-20T03:43:14.734Z,1.63
2024-02-20T03:45:41.073Z,1.70
2024-02-20T03:48:07.628Z,1.85
2024-02-20T03:50:34.098Z,1.70
2024-02-20T03:53:03.228Z,2.13
2024-02-20T03:55:30.721Z,1.23
2024-02-20T03:57:57.324Z,1.73
2024-02-20T04:00:23.661Z,1.92
2024-02-20T04:02:50.016Z,2.08
2024-02-20T04:05:19.001Z,2.53
2024-02-20T04:07:47.720Z,1.58
2024-02-20T04:10:15.276Z,2.13
2024-02-20T04:12:42.115Z,1.92
2024-02-20T04:15:09.440Z,1.80
2024-02-20T04:17:35.964Z,2.20
2024-02-20T04:20:03.549Z,2.38
2024-02-20T04:22:29.983Z,1.73
2024-02-20T04:24:56.387Z,1.63
2024-02-20T04:27:22.699Z,1.73
2024-02-20T04:29:51.356Z,1.48
2024-02-20T04:32:18.360Z,1.35
2024-02-20T04:34:45.026Z,1.83
2024-02-20T04:37:11.464Z,1.45
2024-02-20T04:39:37.796Z,1.98
2024-02-20T04:42:04.300Z,1.40
2024-02-20T04:44:30.611Z,2.13
2024-02-20T04:46:56.984Z,1.92
2024-02-20T04:49:23.313Z,1.55
2024-02-20T04:51:49.666Z,1.83
2024-02-20T04:54:15.992Z,1.83
2024-02-20T04:56:42.364Z,1.65
2024-02-20T04:59:08.681Z,2.45
2024-02-20T05:01:35.144Z,1.40
2024-02-20T05:04:01.700Z,2.03
2024-02-20T05:06:29.233Z,2.38
2024-02-20T05:08:55.639Z,2.28
2024-02-20T05:11:22.029Z,1.30
2024-02-20T05:13:48.357Z,2.05
2024-02-20T05:16:14.777Z,1.55
2024-02-20T05:18:41.168Z,1.75
2024-02-20T05:21:08.472Z,2.15
2024-02-20T05:23:34.852Z,2.42
2024-02-20T05:26:01.267Z,2.17
2024-02-20T05:28:27.531Z,1.58
2024-02-20T05:30:54.218Z,1.58
2024-02-20T05:33:20.726Z,1.98
2024-02-20T05:35:47.078Z,2.53
2024-02-20T05:38:13.688Z,2.35
2024-02-20T05:40:40.160Z,2.15
2024-02-20T05:43:06.656Z,2.42
2024-02-20T05:45:33.081Z,2.08
2024-02-20T05:47:59.759Z,1.90
2024-02-20T05:50:26.211Z,2.15
2024-02-20T05:52:52.880Z,2.78
2024-02-20T05:55:19.382Z,2.97
2024-02-20T05:57:45.758Z,2.92
2024-02-20T06:00:14.464Z,1.88
2024-02-20T06:02:40.871Z,2.28
2024-02-20T06:05:07.484Z,2.08
2024-02-20T06:07:34.201Z,2.53
2024-02-20T06:10:00.586Z,2.00
2024-02-20T06:12:27.766Z,2.28
2024-02-20T06:14:54.172Z,2.20
2024-02-20T06:17:20.582Z,2.88
2024-02-20T06:19:46.937Z,2.97
2024-02-20T06:22:13.424Z,2.17
2024-02-20T06:24:39.705Z,2.95
2024-02-20T06:27:06.062Z,3.10
2024-02-20T06:29:32.412Z,2.60
2024-02-20T06:31:58.712Z,2.70
2024-02-20T06:34:25.251Z,2.60
2024-02-20T06:36:51.684Z,2.78
2024-02-20T06:39:19.257Z,2.65
2024-02-20T06:41:45.505Z,2.63
2024-02-20T06:44:11.785Z,2.70
2024-02-20T06:46:41.493Z,3.08
2024-02-20T06:49:08.091Z,2.72
2024-02-20T06:51:34.480Z,2.13
2024-02-20T06:54:00.817Z,3.03
2024-02-20T06:56:29.469Z,2.67
2024-02-20T06:58:55.805Z,2.30
2024-02-20T07:01:22.277Z,2.90
2024-02-20T07:03:50.866Z,2.58
2024-02-20T07:06:17.601Z,2.95
2024-02-20T07:08:43.983Z,2.90
2024-02-20T07:11:10.419Z,3.00
2024-02-20T07:13:36.803Z,2.90
2024-02-20T07:16:03.286Z,2.80
2024-02-20T07:18:29.652Z,2.83
2024-02-20T07:20:56.008Z,2.60
2024-02-20T07:23:22.346Z,1.83
2024-02-20T07:25:48.724Z,2.22
2024-02-20T07:28:15.182Z,3.55
2024-02-20T07:30:41.563Z,2.35
2024-02-20T07:33:08.041Z,2.75
2024-02-20T07:35:34.457Z,3.22
2024-02-20T07:38:00.927Z,3.33
2024-02-20T07:40:27.311Z,2.70
2024-02-20T07:42:53.762Z,3.05
2024-02-20T07:45:20.313Z,1.50
2024-02-20T07:47:46.654Z,2.72
2024-02-20T07:50:13.166Z,2.88
2024-02-20T07:52:39.582Z,2.95
2024-02-20T07:55:06.263Z,2.78
2024-02-20T07:57:35.123Z,2.63
2024-02-20T08:00:02.077Z,3.35
2024-02-20T08:02:28.477Z,2.92
2024-02-20T08:04:54.958Z,3.35
2024-02-20T08:07:22.720Z,4.15
2024-02-20T08:09:49.168Z,3.80
2024-02-20T08:12:15.933Z,3.15
2024-02-20T08:14:44.419Z,3.17
2024-02-20T08:17:12.404Z,2.95
2024-02-20T08:19:38.748Z,3.58
2024-02-20T08:22:05.137Z,3.30
2024-02-20T08:24:31.404Z,3.50
2024-02-20T08:26:57.640Z,3.67
2024-02-20T08:29:23.919Z,3.78
2024-02-20T08:31:50.396Z,3.50
2024-02-20T08:34:16.808Z,4.03
2024-02-20T08:36:43.194Z,3.67
2024-02-20T08:39:09.495Z,3.72
2024-02-20T08:41:35.883Z,3.80
2024-02-20T08:44:02.349Z,3.30
2024-02-20T08:46:32.135Z,2.72
2024-02-20T08:48:58.616Z,3.67
2024-02-20T08:51:25.193Z,3.38
2024-02-20T08:53:51.757Z,2.75
2024-02-20T08:56:18.073Z,3.65
2024-02-20T08:58:44.384Z,3.03
2024-02-20T09:01:10.814Z,2.45
2024-02-20T09:03:37.445Z,3.33
2024-02-20T09:06:04.119Z,3.13
2024-02-20T09:08:30.477Z,3.40
2024-02-20T09:10:56.879Z,3.30
2024-02-20T09:13:23.313Z,3.45
2024-02-20T09:15:49.834Z,3.72
2024-02-20T09:18:16.384Z,2.78
2024-02-20T09:20:42.890Z,3.50
2024-02-20T09:23:09.387Z,3.50
2024-02-20T09:25:35.821Z,3.55
2024-02-20T09:28:02.546Z,3.55
2024-02-20T09:30:28.888Z,2.85
2024-02-20T09:32:55.392Z,4.00
2024-02-20T09:35:21.931Z,2.60
2024-02-20T09:37:48.595Z,2.55
2024-02-20T09:40:15.338Z,2.72
2024-02-20T09:42:45.617Z,2.28
2024-02-20T09:45:16.585Z,2.72
2024-02-20T09:47:53.913Z,2.70
2024-02-20T09:50:23.253Z,3.35
2024-02-20T09:52:53.301Z,2.78
2024-02-20T09:55:19.644Z,2.88
2024-02-20T09:57:46.186Z,2.58
2024-02-20T10:00:12.897Z,3.53
2024-02-20T10:02:39.237Z,2.97
2024-02-20T10:05:07.053Z,3.42
2024-02-20T10:07:33.479Z,4.63
2024-02-20T10:10:00.259Z,3.25
2024-02-20T10:12:28.228Z,2.65
2024-02-20T10:14:54.565Z,2.95
2024-02-20T10:17:22.171Z,3.45
2024-02-20T10:19:48.587Z,2.88
2024-02-20T10:22:24.551Z,2.55
2024-02-20T10:24:50.869Z,3.35
2024-02-20T10:27:17.661Z,3.33
2024-02-20T10:29:43.948Z,3.80
2024-02-20T10:32:10.388Z,3.47
2024-02-20T10:34:36.848Z,3.03
2024-02-20T10:37:03.953Z,2.70
2024-02-20T10:39:30.581Z,4.13
2024-02-20T10:41:59.609Z,2.85
2024-02-20T10:44:26.365Z,4.10
2024-02-20T10:46:56.522Z,3.17
2024-02-20T10:49:28.110Z,2.40
2024-02-20T10:51:55.828Z,3.40
2024-02-20T10:54:23.395Z,3.20
2024-02-20T10:56:50.708Z,2.47
2024-02-20T10:59:18.221Z,2.80
2024-02-20T11:01:44.534Z,2.53
2024-02-20T11:04:15.528Z,3.08
2024-02-20T11:06:43.853Z,2.63
2024-02-20T11:09:10.809Z,2.05
2024-02-20T11:11:37.186Z,3.03
2024-02-20T11:14:03.600Z,3.13
2024-02-20T11:16:33.754Z,1.70
2024-02-20T11:19:00.300Z,2.50
2024-02-20T11:21:27.456Z,2.05
2024-02-20T11:23:54.084Z,1.77
2024-02-20T11:26:29.918Z,2.05
2024-02-20T11:28:56.634Z,3.33
2024-02-20T11:31:26.419Z,1.90
2024-02-20T11:33:53.826Z,3.03
2024-02-20T11:36:20.658Z,2.25
2024-02-20T11:38:56.825Z,2.75
2024-02-20T11:41:23.124Z,2.25
2024-02-20T11:43:59.161Z,2.72
2024-02-20T11:46:25.512Z,2.45
2024-02-20T11:48:52.160Z,3.38
2024-02-20T11:51:19.012Z,2.85
2024-02-20T11:53:45.454Z,2.72
2024-02-20T11:56:11.842Z,2.63
2024-02-20T11:58:38.233Z,2.70
2024-02-20T12:01:06.105Z,3.00
2024-02-20T12:03:36.449Z,3.28
2024-02-20T12:06:07.168Z,3.10
2024-02-20T12:08:34.892Z,2.90
2024-02-20T12:11:05.256Z,2.17
2024-02-20T12:13:31.694Z,2.50
2024-02-20T12:15:58.045Z,3.35
2024-02-20T12:18:28.192Z,2.28
2024-02-20T12:21:07.717Z,3.30
2024-02-20T12:23:34.582Z,2.30
2024-02-20T12:26:04.779Z,2.60
2024-02-20T12:28:32.369Z,2.42
2024-02-20T12:30:58.721Z,2.70
2024-02-20T12:33:25.396Z,2.75
2024-02-20T12:35:51.846Z,2.90
2024-02-20T12:38:18.152Z,3.00
2024-02-20T12:40:44.563Z,2.92
2024-02-20T12:43:10.957Z,2.38
2024-02-20T12:45:39.310Z,1.52
2024-02-20T12:48:05.970Z,2.83
2024-02-20T12:50:32.523Z,2.97
2024-02-20T12:52:59.118Z,2.42
2024-02-20T12:55:25.399Z,3.05
2024-02-20T12:57:51.732Z,2.47
2024-02-20T13:00:18.235Z,1.55
2024-02-20T13:02:44.576Z,2.58
2024-02-20T13:05:10.935Z,2.10
2024-02-20T13:07:37.484Z,2.30
2024-02-20T13:10:04.046Z,1.77
2024-02-20T13:12:30.466Z,2.45
2024-02-20T13:14:57.028Z,1.85
2024-02-20T13:17:23.625Z,2.15
2024-02-20T13:19:49.967Z,2.75
2024-02-20T13:22:16.664Z,1.40
2024-02-20T13:24:43.020Z,1.75
2024-02-20T13:27:09.410Z,1.13
2024-02-20T13:29:38.085Z,1.73
2024-02-20T13:32:05.292Z,1.02
2024-02-20T13:34:32.122Z,1.95
2024-02-20T13:36:58.512Z,1.63
2024-02-20T13:39:24.862Z,2.13
2024-02-20T13:41:51.121Z,2.60
2024-02-20T13:44:17.403Z,2.60
2024-02-20T13:46:44.112Z,2.63
2024-02-20T13:49:20.994Z,2.15
2024-02-20T13:51:47.406Z,2.00
2024-02-20T13:54:14.018Z,2.10
2024-02-20T13:56:40.422Z,2.83
2024-02-20T13:59:06.739Z,2.70
2024-02-20T14:01:33.419Z,2.00
2024-02-20T14:03:59.849Z,2.65
2024-02-20T14:06:26.205Z,1.98
2024-02-20T14:08:54.534Z,1.85
2024-02-20T14:11:22.780Z,2.65
2024-02-20T14:13:49.181Z,3.00
2024-02-20T14:16:16.132Z,3.85
2024-02-20T14:18:44.095Z,2.67
2024-02-20T14:21:11.714Z,3.45
2024-02-20T14:23:39.351Z,3.10
2024-02-20T14:26:05.920Z,2.95
2024-02-20T14:28:32.900Z,3.38
2024-02-20T14:31:02.815Z,3.88
2024-02-20T14:33:29.863Z,4.05
2024-02-20T14:35:56.533Z,4.30
2024-02-20T14:38:23.489Z,4.70
2024-02-20T14:40:49.840Z,4.50
2024-02-20T14:43:16.315Z,4.80
2024-02-20T14:45:42.667Z,3.95
2024-02-20T14:48:09.064Z,4.72
2024-02-20T14:50:35.938Z,4.28
2024-02-20T14:53:02.251Z,6.00
2024-02-20T14:55:28.640Z,5.78
2024-02-20T14:57:55.001Z,5.45
2024-02-20T15:00:21.440Z,5.70
2024-02-20T15:02:47.761Z,5.22
2024-02-20T15:05:17.246Z,6.30
2024-02-20T15:07:43.937Z,5.60
2024-02-20T15:10:11.292Z,6.32
2024-02-20T15:12:37.819Z,6.80
2024-02-20T15:15:04.511Z,6.13
2024-02-20T15:17:31.724Z,6.85
2024-02-20T15:19:58.083Z,6.15
2024-02-20T15:22:24.731Z,5.85
2024-02-20T15:24:51.449Z,6.78
2024-02-20T15:27:17.880Z,5.93
2024-02-20T15:29:44.170Z,7.57
2024-02-20T15:32:10.508Z,6.40
2024-02-20T15:34:37.228Z,6.82
2024-02-20T15:37:04.111Z,7.28
2024-02-20T15:39:30.748Z,7.20
2024-02-20T15:41:57.099Z,6.72
2024-02-20T15:44:23.359Z,5.68
2024-02-20T15:46:49.775Z,6.90
2024-02-20T15:49:16.297Z,6.65
2024-02-20T15:51:42.953Z,6.50
2024-02-20T15:54:09.545Z,6.20
2024-02-20T15:56:36.171Z,6.63
2024-02-20T15:59:02.833Z,6.93
2024-02-20T16:01:29.625Z,6.45
2024-02-20T16:03:57.162Z,4.47
2024-02-20T16:06:23.514Z,6.03
2024-02-20T16:08:50.071Z,4.80
2024-02-20T16:11:16.481Z,5.03
2024-02-20T16:13:44.139Z,5.43
2024-02-20T16:16:12.292Z,6.30
2024-02-20T16:18:38.800Z,6.30
2024-02-20T16:21:05.315Z,5.80
2024-02-20T16:23:31.643Z,7.05
2024-02-20T16:25:58.021Z,5.45
2024-02-20T16:28:24.518Z,6.28
2024-02-20T16:30:50.879Z,6.90
2024-02-20T16:33:17.189Z,5.78
2024-02-20T16:35:43.472Z,5.10
2024-02-20T16:38:14.574Z,6.18
2024-02-20T16:40:40.988Z,7.15
2024-02-20T16:43:07.505Z,7.72
2024-02-20T16:45:33.906Z,7.10
2024-02-20T16:48:00.349Z,7.20
2024-02-20T16:50:26.898Z,6.65
2024-02-20T16:52:53.873Z,7.18
2024-02-20T16:55:20.355Z,6.85
2024-02-20T16:57:46.637Z,7.57
2024-02-20T17:00:13.189Z,6.60
2024-02-20T17:02:39.600Z,5.75
2024-02-20T17:05:12.592Z,6.03
2024-02-20T17:07:39.396Z,6.72
2024-02-20T17:10:06.071Z,5.20
2024-02-20T17:12:32.722Z,6.05
2024-02-20T17:14:59.117Z,5.18
2024-02-20T17:17:25.555Z,6.18
2024-02-20T17:19:53.156Z,3.83
2024-02-20T17:22:20.003Z,7.20
2024-02-20T17:24:46.307Z,6.32
2024-02-20T17:27:12.704Z,4.82
2024-02-20T17:29:39.014Z,6.50
2024-02-20T17:32:06.205Z,6.05
2024-02-20T17:34:32.828Z,6.13
2024-02-20T17:36:59.168Z,3.95
2024-02-20T17:39:25.524Z,5.85
2024-02-20T17:41:51.829Z,4.95
2024-02-20T17:44:18.155Z,5.32
2024-02-20T17:46:44.513Z,4.43
2024-02-20T17:49:11.051Z,5.50
2024-02-20T17:51:37.581Z,5.07
2024-02-20T17:54:06.704Z,6.93
2024-02-20T17:56:35.343Z,5.72
2024-02-20T17:59:03.188Z,5.97
2024-02-20T18:01:29.551Z,4.80
2024-02-20T18:03:55.883Z,8.68
2024-02-20T18:06:22.668Z,5.72
2024-02-20T18:08:48.962Z,6.72
2024-02-20T18:11:15.384Z,6.47
2024-02-20T18:13:41.774Z,6.55
2024-02-20T18:16:08.075Z,5.43
2024-02-20T18:18:34.459Z,5.50
2024-02-20T18:21:01.373Z,6.20
2024-02-20T18:23:28.134Z,5.78
2024-02-20T18:25:55.283Z,6.10
2024-02-20T18:28:22.101Z,6.32
2024-02-20T18:30:48.536Z,6.38
2024-02-20T18:33:15.185Z,5.43
2024-02-20T18:35:41.973Z,5.70
2024-02-20T18:38:08.417Z,6.10
2024-02-20T18:40:34.860Z,5.85
2024-02-20T18:43:04.372Z,6.10
2024-02-20T18:45:32.210Z,5.20
2024-02-20T18:47:58.549Z,6.05
2024-02-20T18:50:25.045Z,4.65
2024-02-20T18:52:51.495Z,5.03
2024-02-20T18:55:18.218Z,4.65
2024-02-20T18:57:44.652Z,4.53
2024-02-20T19:00:12.339Z,3.72
2024-02-20T19:02:38.664Z,4.80
2024-02-20T19:05:05.144Z,4.90
2024-02-20T19:07:31.633Z,6.07
2024-02-20T19:09:58.064Z,7.25
2024-02-20T19:12:24.400Z,4.53
2024-02-20T19:14:50.708Z,5.00
2024-02-20T19:17:17.407Z,5.78
2024-02-20T19:19:44.332Z,6.15
2024-02-20T19:22:10.975Z,5.38
2024-02-20T19:24:37.463Z,7.07
2024-02-20T19:27:03.912Z,5.55
2024-02-20T19:29:30.188Z,5.22
2024-02-20T19:31:58.812Z,5.55
2024-02-20T19:34:25.228Z,5.78
2024-02-20T19:36:51.600Z,6.53
2024-02-20T19:39:17.863Z,6.10
2024-02-20T19:41:44.157Z,5.88
2024-02-20T19:44:10.578Z,6.00
2024-02-20T19:46:37.643Z,4.57
2024-02-20T19:49:04.072Z,4.80
2024-02-20T19:51:31.453Z,4.22
2024-02-20T19:54:01.032Z,4.15
2024-02-20T19:56:27.409Z,4.95
2024-02-20T19:58:53.862Z,4.57
2024-02-20T20:01:20.658Z,4.30
2024-02-20T20:03:47.257Z,5.45
2024-02-20T20:06:13.562Z,4.57
2024-02-20T20:08:40.161Z,4.38
2024-02-20T20:11:06.692Z,3.95
2024-02-20T20:13:33.230Z,4.55
2024-02-20T20:15:59.609Z,4.82
2024-02-20T20:18:28.305Z,4.47
2024-02-20T20:20:54.694Z,4.38
2024-02-20T20:23:20.977Z,4.43
2024-02-20T20:25:47.326Z,4.38
2024-02-20T20:28:13.737Z,3.80
2024-02-20T20:30:42.544Z,4.07
2024-02-20T20:33:08.901Z,4.05
2024-02-20T20:35:35.250Z,3.45
2024-02-20T20:38:01.570Z,5.13
2024-02-20T20:40:28.198Z,3.97
2024-02-20T20:42:54.647Z,3.42
2024-02-20T20:45:21.082Z,3.95
2024-02-20T20:47:47.484Z,4.03
2024-02-20T20:50:14.100Z,3.13
2024-02-20T20:52:40.571Z,4.18
2024-02-20T20:55:07.330Z,3.60
2024-02-20T20:57:33.962Z,4.15
2024-02-20T21:00:00.433Z,4.07
2024-02-20T21:02:29.478Z,3.60
2024-02-20T21:04:57.101Z,4.28
2024-02-20T21:07:23.604Z,3.72
2024-02-20T21:09:50.076Z,3.22
2024-02-20T21:12:16.368Z,3.00
2024-02-20T21:14:42.708Z,3.90
2024-02-20T21:17:09.096Z,3.60
2024-02-20T21:19:35.758Z,4.82
2024-02-20T21:22:02.179Z,3.33
2024-02-20T21:24:28.544Z,3.20
2024-02-20T21:26:54.992Z,3.90
2024-02-20T21:29:22.683Z,3.63
2024-02-20T21:31:52.145Z,4.25
2024-02-20T21:34:19.196Z,3.65
2024-02-20T21:36:45.946Z,4.07
2024-02-20T21:39:12.307Z,3.72
2024-02-20T21:41:41.652Z,4.43
2024-02-20T21:44:08.546Z,3.38
2024-02-20T21:46:35.232Z,3.78
2024-02-20T21:49:01.634Z,4.60
2024-02-20T21:51:28.128Z,3.80
2024-02-20T21:53:54.622Z,3.92
2024-02-20T21:56:21.341Z,3.97
2024-02-20T21:58:47.789Z,3.53
2024-02-20T22:01:14.397Z,3.42
2024-02-20T22:03:40.830Z,3.88
2024-02-20T22:06:07.276Z,3.60
2024-02-20T22:08:34.535Z,4.00
2024-02-20T22:11:01.155Z,3.88
2024-02-20T22:13:28.729Z,4.15
2024-02-20T22:15:57.675Z,3.97
2024-02-20T22:18:24.510Z,3.83
2024-02-20T22:20:50.948Z,4.03
2024-02-20T22:23:17.483Z,3.35
2024-02-20T22:25:54.485Z,3.33
2024-02-20T22:28:20.959Z,3.05
2024-02-20T22:30:47.284Z,3.38
2024-02-20T22:33:13.717Z,3.08
2024-02-20T22:35:40.439Z,3.60
2024-02-20T22:38:06.979Z,3.47
2024-02-20T22:40:33.504Z,3.95
2024-02-20T22:42:59.895Z,2.58
2024-02-20T22:45:26.387Z,3.72
2024-02-20T22:47:52.889Z,3.50
2024-02-20T22:50:19.256Z,3.33
2024-02-20T22:52:45.919Z,3.00
2024-02-20T22:55:12.457Z,2.58
2024-02-20T22:57:38.795Z,2.63
2024-02-20T23:00:05.985Z,3.33
2024-02-20T23:02:32.410Z,3.22
2024-02-20T23:04:59.099Z,2.33
2024-02-20T23:07:25.992Z,2.60
2024-02-20T23:09:55.326Z,3.20
2024-02-20T23:12:21.684Z,2.70
2024-02-20T23:14:48.059Z,2.55
2024-02-20T23:17:14.406Z,3.05
2024-02-20T23:19:40.881Z,3.30
2024-02-20T23:22:07.521Z,2.47
2024-02-20T23:24:33.836Z,2.78
2024-02-20T23:27:00.169Z,2.72
2024-02-20T23:29:29.430Z,2.25
2024-02-20T23:31:56.415Z,2.97
2024-02-20T23:34:23.221Z,2.72
2024-02-20T23:36:49.812Z,2.85
2024-02-20T23:39:16.181Z,2.70
2024-02-20T23:41:42.511Z,2.63
2024-02-20T23:44:09.115Z,2.92
2024-02-20T23:46:35.429Z,3.22
2024-02-20T23:49:01.846Z,3.08
2024-02-20T23:51:28.526Z,2.05
2024-02-20T23:53:54.865Z,2.60
2024-02-20T23:56:21.134Z,1.95
2024-02-20T23:58:48.716Z,2.55
